createdAt,value
2023-02-06T00:00:51.487Z,-5.44
2023-02-06T00:03:38.392Z,-5.44
2023-02-06T00:06:09.081Z,-5.46
2023-02-06T00:08:36.266Z,-5.39
2023-02-06T00:11:05.194Z,-5.37
2023-02-06T00:13:35.520Z,-5.40
2023-02-06T00:16:02.795Z,-5.39
2023-02-06T00:18:29.874Z,-5.39
2023-02-06T00:20:57.097Z,-5.39
2023-02-06T00:23:24.159Z,-5.40
2023-02-06T00:25:51.645Z,-5.46
2023-02-06T00:28:18.744Z,-5.43
2023-02-06T00:30:47.369Z,-5.43
2023-02-06T00:33:14.466Z,-5.42
2023-02-06T00:35:41.807Z,-5.44
2023-02-06T00:38:10.090Z,-5.47
2023-02-06T00:40:37.457Z,-5.48
2023-02-06T00:43:04.409Z,-5.47
2023-02-06T00:45:31.576Z,-5.50
2023-02-06T00:47:58.456Z,-5.46
2023-02-06T00:50:25.975Z,-5.44
2023-02-06T00:52:52.858Z,-5.45
2023-02-06T00:55:20.220Z,-5.53
2023-02-06T00:57:47.214Z,-5.49
2023-02-06T01:00:14.758Z,-5.52
2023-02-06T01:02:41.849Z,-5.57
2023-02-06T01:05:09.316Z,-5.62
2023-02-06T01:07:39.906Z,-5.64
2023-02-06T01:10:08.238Z,-5.67
2023-02-06T01:12:35.967Z,-5.72
2023-02-06T01:15:04.936Z,-5.76
2023-02-06T01:17:32.965Z,-5.78
2023-02-06T01:20:00.640Z,-5.80
2023-02-06T01:22:28.044Z,-5.84
2023-02-06T01:24:55.269Z,-5.84
2023-02-06T01:27:22.346Z,-5.87
2023-02-06T01:29:49.571Z,-5.86
2023-02-06T01:32:16.517Z,-5.90
2023-02-06T01:34:43.942Z,-5.93
2023-02-06T01:37:10.830Z,-5.97
2023-02-06T01:39:38.086Z,-5.99
2023-02-06T01:42:05.419Z,-5.97
2023-02-06T01:44:35.669Z,-6.03
2023-02-06T01:47:04.875Z,-6.10
2023-02-06T01:49:35.927Z,-6.09
2023-02-06T01:52:02.803Z,-6.17
2023-02-06T01:54:30.953Z,-6.17
2023-02-06T01:57:01.736Z,-6.13
2023-02-06T01:59:29.560Z,-6.13
2023-02-06T02:01:56.769Z,-6.10
2023-02-06T02:04:26.435Z,-6.04
2023-02-06T02:07:01.310Z,-6.04
2023-02-06T02:09:29.763Z,-6.07
2023-02-06T02:11:56.655Z,-6.05
2023-02-06T02:14:24.107Z,-6.03
2023-02-06T02:17:06.578Z,-6.04
2023-02-06T02:19:43.350Z,-5.96
2023-02-06T02:22:19.438Z,-5.92
2023-02-06T02:25:05.418Z,-5.92
2023-02-06T02:27:32.805Z,-5.90
2023-02-06T02:30:02.949Z,-5.82
2023-02-06T02:32:42.310Z,-5.81
2023-02-06T02:35:14.178Z,-5.78
2023-02-06T02:37:47.380Z,-5.77
2023-02-06T02:40:38.002Z,-5.73
2023-02-06T02:43:14.671Z,-5.67
2023-02-06T02:45:51.016Z,-5.64
2023-02-06T02:48:24.123Z,-5.60
2023-02-06T02:50:53.261Z,-5.53
2023-02-06T02:53:21.077Z,-5.53
2023-02-06T02:55:48.245Z,-5.52
2023-02-06T02:58:18.336Z,-5.46
2023-02-06T03:00:48.876Z,-5.38
2023-02-06T03:03:18.072Z,-5.33
2023-02-06T03:05:52.078Z,-5.30
2023-02-06T03:08:26.063Z,-5.27
2023-02-06T03:11:03.519Z,-5.26
2023-02-06T03:13:34.629Z,-5.23
2023-02-06T03:16:10.975Z,-5.19
2023-02-06T03:18:46.338Z,-5.12
2023-02-06T03:21:18.413Z,-5.13
2023-02-06T03:23:47.235Z,-5.10
2023-02-06T03:26:16.212Z,-5.08
2023-02-06T03:28:46.154Z,-5.06
2023-02-06T03:31:15.816Z,-5.03
2023-02-06T03:33:46.885Z,-5.03
2023-02-06T03:36:17.238Z,-5.00
2023-02-06T03:38:48.502Z,-5.01
2023-02-06T03:41:17.144Z,-5.04
2023-02-06T03:43:45.975Z,-5.05
2023-02-06T03:46:15.086Z,-5.07
2023-02-06T03:48:47.441Z,-5.07
2023-02-06T03:51:17.977Z,-5.05
2023-02-06T03:53:49.940Z,-5.07
2023-02-06T03:56:22.230Z,-5.06
2023-02-06T03:58:49.140Z,-5.06
2023-02-06T04:01:16.785Z,-5.06
2023-02-06T04:03:43.758Z,-5.05
2023-02-06T04:06:11.020Z,-5.06
2023-02-06T04:08:38.002Z,-5.08
2023-02-06T04:11:05.156Z,-5.12
2023-02-06T04:13:32.019Z,-5.12
2023-02-06T04:15:59.336Z,-5.17
2023-02-06T04:18:26.295Z,-5.19
2023-02-06T04:20:53.678Z,-5.22
2023-02-06T04:23:20.634Z,-5.26
2023-02-06T04:25:48.279Z,-5.28
2023-02-06T04:28:15.214Z,-5.29
2023-02-06T04:30:42.554Z,-5.30
2023-02-06T04:33:09.551Z,-5.32
2023-02-06T04:35:37.347Z,-5.30
2023-02-06T04:38:04.557Z,-5.28
2023-02-06T04:40:32.069Z,-5.25
2023-02-06T04:42:59.073Z,-5.20
2023-02-06T04:45:26.426Z,-5.18
2023-02-06T04:47:53.899Z,-5.17
2023-02-06T04:50:21.172Z,-5.18
2023-02-06T04:52:48.250Z,-5.16
2023-02-06T04:55:15.578Z,-5.19
2023-02-06T04:57:42.469Z,-5.21
2023-02-06T05:00:10.430Z,-5.21
2023-02-06T05:02:39.976Z,-5.23
2023-02-06T05:05:08.321Z,-5.25
2023-02-06T05:07:36.199Z,-5.26
2023-02-06T05:10:03.957Z,-5.27
2023-02-06T05:12:30.886Z,-5.29
2023-02-06T05:14:58.074Z,-5.28
2023-02-06T05:17:24.895Z,-5.29
2023-02-06T05:19:52.402Z,-5.30
2023-02-06T05:22:19.291Z,-5.26
2023-02-06T05:24:49.313Z,-5.27
2023-02-06T05:27:16.190Z,-5.29
2023-02-06T05:29:43.322Z,-5.32
2023-02-06T05:32:10.273Z,-5.37
2023-02-06T05:34:37.468Z,-5.42
2023-02-06T05:37:07.185Z,-5.47
2023-02-06T05:39:34.438Z,-5.51
2023-02-06T05:42:03.694Z,-5.56
2023-02-06T05:44:30.902Z,-5.59
2023-02-06T05:46:57.914Z,-5.63
2023-02-06T05:49:25.109Z,-5.65
2023-02-06T05:51:52.052Z,-5.66
2023-02-06T05:54:19.281Z,-5.67
2023-02-06T05:56:46.167Z,-5.65
2023-02-06T05:59:13.336Z,-5.64
2023-02-06T06:01:40.286Z,-5.66
2023-02-06T06:04:07.763Z,-5.65
2023-02-06T06:06:34.701Z,-5.63
2023-02-06T06:09:01.962Z,-5.62
2023-02-06T06:11:33.516Z,-5.58
2023-02-06T06:14:00.842Z,-5.57
2023-02-06T06:16:27.785Z,-5.58
2023-02-06T06:18:55.972Z,-5.53
2023-02-06T06:21:25.782Z,-5.55
2023-02-06T06:23:53.041Z,-5.54
2023-02-06T06:26:20.049Z,-5.49
2023-02-06T06:28:47.317Z,-5.44
2023-02-06T06:31:15.171Z,-5.41
2023-02-06T06:33:42.516Z,-5.39
2023-02-06T06:36:10.076Z,-5.33
2023-02-06T06:38:37.952Z,-5.29
2023-02-06T06:41:05.280Z,-5.24
2023-02-06T06:43:33.090Z,-5.16
2023-02-06T06:46:02.761Z,-5.09
2023-02-06T06:48:30.222Z,-5.03
2023-02-06T06:50:57.312Z,-4.93
2023-02-06T06:53:24.581Z,-4.65
2023-02-06T06:55:51.510Z,-3.78
2023-02-06T06:58:18.989Z,-3.68
2023-02-06T07:00:48.397Z,-3.89
2023-02-06T07:03:15.695Z,-4.03
2023-02-06T07:05:44.967Z,-4.09
2023-02-06T07:08:12.239Z,-4.11
2023-02-06T07:10:39.067Z,-4.15
2023-02-06T07:13:06.628Z,-4.23
2023-02-06T07:15:33.891Z,-4.27
2023-02-06T07:18:01.152Z,-4.33
2023-02-06T07:20:28.182Z,-4.29
2023-02-06T07:22:55.361Z,-4.26
2023-02-06T07:25:22.501Z,-4.24
2023-02-06T07:27:50.098Z,-4.17
2023-02-06T07:30:17.099Z,-4.00
2023-02-06T07:32:44.468Z,-3.91
2023-02-06T07:35:11.342Z,-3.76
2023-02-06T07:37:38.458Z,-3.65
2023-02-06T07:40:05.716Z,-3.59
2023-02-06T07:42:33.851Z,-3.54
2023-02-06T07:45:09.370Z,-3.61
2023-02-06T07:47:36.632Z,-3.53
2023-02-06T07:50:04.507Z,-3.53
2023-02-06T07:52:31.733Z,-3.46
2023-02-06T07:54:58.613Z,-3.55
2023-02-06T07:57:28.848Z,-3.65
2023-02-06T07:59:55.793Z,-3.58
2023-02-06T08:02:23.052Z,-3.62
2023-02-06T08:04:50.019Z,-3.56
2023-02-06T08:07:19.275Z,-3.49
2023-02-06T08:09:46.777Z,-3.44
2023-02-06T08:12:14.204Z,-3.37
2023-02-06T08:14:41.359Z,-3.29
2023-02-06T08:17:08.825Z,-3.26
2023-02-06T08:19:35.717Z,-3.19
2023-02-06T08:22:02.927Z,-3.12
2023-02-06T08:24:30.041Z,-3.07
2023-02-06T08:26:57.262Z,-3.00
2023-02-06T08:29:24.691Z,-2.90
2023-02-06T08:31:52.036Z,-2.72
2023-02-06T08:34:21.262Z,-2.60
2023-02-06T08:36:48.551Z,-2.53
2023-02-06T08:39:15.852Z,-2.49
2023-02-06T08:41:45.729Z,-2.47
2023-02-06T08:44:14.599Z,-2.44
2023-02-06T08:46:42.818Z,-2.32
2023-02-06T08:49:14.635Z,-2.44
2023-02-06T08:51:41.909Z,-2.28
2023-02-06T08:54:11.311Z,-2.27
2023-02-06T08:56:39.072Z,-2.25
2023-02-06T08:59:06.679Z,-2.04
2023-02-06T09:01:35.184Z,-1.97
2023-02-06T09:04:06.984Z,-1.89
2023-02-06T09:06:35.172Z,-1.81
2023-02-06T09:09:02.634Z,-1.75
2023-02-06T09:11:30.091Z,-1.83
2023-02-06T09:13:57.860Z,-1.64
2023-02-06T09:16:28.699Z,-1.43
2023-02-06T09:18:56.115Z,-1.52
2023-02-06T09:21:24.544Z,-1.41
2023-02-06T09:23:53.234Z,-1.41
2023-02-06T09:26:21.664Z,-1.39
2023-02-06T09:28:51.570Z,-1.41
2023-02-06T09:31:21.391Z,-1.50
2023-02-06T09:33:48.460Z,-1.59
2023-02-06T09:36:16.904Z,-1.69
2023-02-06T09:38:45.177Z,-1.61
2023-02-06T09:41:24.614Z,-1.52
2023-02-06T09:43:53.012Z,-1.36
2023-02-06T09:46:23.531Z,-1.10
2023-02-06T09:48:51.090Z,-0.79
2023-02-06T09:51:28.923Z,-0.77
2023-02-06T09:54:05.965Z,-0.87
2023-02-06T09:56:36.196Z,-1.02
2023-02-06T09:59:08.778Z,-1.23
2023-02-06T10:01:49.086Z,-1.11
2023-02-06T10:04:19.837Z,-1.06
2023-02-06T10:06:54.191Z,-0.95
2023-02-06T10:09:25.744Z,-0.96
2023-02-06T10:11:57.849Z,-0.90
2023-02-06T10:14:28.981Z,-0.85
2023-02-06T10:17:01.028Z,-0.69
2023-02-06T10:19:48.256Z,-0.58
2023-02-06T10:22:34.367Z,-0.34
2023-02-06T10:25:13.937Z,-0.30
2023-02-06T10:27:42.993Z,-0.30
2023-02-06T10:30:17.465Z,-0.21
2023-02-06T10:32:59.411Z,-0.14
2023-02-06T10:35:43.172Z,-0.31
2023-02-06T10:38:40.036Z,-0.51
2023-02-06T10:41:19.131Z,-0.35
2023-02-06T10:44:04.803Z,-0.34
2023-02-06T10:46:37.724Z,-0.15
2023-02-06T10:49:08.312Z,0.02
2023-02-06T10:51:36.617Z,0.09
2023-02-06T10:54:11.815Z,0.25
2023-02-06T10:56:44.530Z,0.56
2023-02-06T10:59:14.719Z,0.85
2023-02-06T11:01:43.346Z,1.02
2023-02-06T11:04:15.947Z,0.75
2023-02-06T11:06:47.338Z,0.80
2023-02-06T11:09:14.784Z,0.63
2023-02-06T11:11:46.723Z,0.30
2023-02-06T11:14:22.400Z,0.24
2023-02-06T11:16:50.309Z,0.27
2023-02-06T11:19:22.798Z,0.45
2023-02-06T11:22:04.974Z,0.38
2023-02-06T11:24:32.220Z,0.60
2023-02-06T11:27:00.714Z,0.67
2023-02-06T11:29:27.906Z,0.76
2023-02-06T11:32:02.596Z,0.66
2023-02-06T11:34:34.891Z,0.57
2023-02-06T11:37:07.061Z,0.67
2023-02-06T11:39:34.256Z,0.75
2023-02-06T11:42:04.214Z,0.92
2023-02-06T11:44:41.096Z,0.98
2023-02-06T11:47:20.332Z,1.07
2023-02-06T11:49:47.721Z,1.25
2023-02-06T11:52:31.308Z,0.93
2023-02-06T11:55:02.351Z,0.76
2023-02-06T11:57:31.257Z,0.45
2023-02-06T12:00:00.614Z,0.50
2023-02-06T12:02:32.299Z,0.52
2023-02-06T12:05:13.592Z,0.33
2023-02-06T12:07:46.285Z,0.16
2023-02-06T12:10:15.400Z,-0.15
2023-02-06T12:12:45.839Z,-0.42
2023-02-06T12:15:39.877Z,-0.44
2023-02-06T12:18:20.989Z,-0.51
2023-02-06T12:20:56.184Z,-0.51
2023-02-06T12:23:29.214Z,-0.41
2023-02-06T12:25:59.749Z,-0.34
2023-02-06T12:28:27.007Z,-0.38
2023-02-06T12:30:57.017Z,-0.39
2023-02-06T12:33:33.565Z,-0.36
2023-02-06T12:36:16.898Z,-0.42
2023-02-06T12:38:49.760Z,-0.45
2023-02-06T12:41:25.854Z,-0.51
2023-02-06T12:43:59.841Z,-0.51
2023-02-06T12:46:29.773Z,-0.36
2023-02-06T12:49:05.543Z,-0.29
2023-02-06T12:51:36.927Z,-0.23
2023-02-06T12:54:06.881Z,-0.25
2023-02-06T12:56:40.898Z,-0.14
2023-02-06T12:59:26.998Z,-0.20
2023-02-06T13:02:24.496Z,-0.12
2023-02-06T13:04:52.154Z,-0.07
2023-02-06T13:07:21.967Z,-0.09
2023-02-06T13:09:53.638Z,-0.28
2023-02-06T13:12:22.722Z,-0.32
2023-02-06T13:14:51.913Z,-0.34
2023-02-06T13:17:36.651Z,-0.35
2023-02-06T13:20:14.022Z,-0.23
2023-02-06T13:22:46.840Z,-0.16
2023-02-06T13:25:27.851Z,-0.15
2023-02-06T13:27:55.741Z,-0.09
2023-02-06T13:30:29.103Z,-0.03
2023-02-06T13:33:16.843Z,-0.06
2023-02-06T13:35:59.591Z,-0.09
2023-02-06T13:38:28.688Z,-0.23
2023-02-06T13:41:14.462Z,-0.15
2023-02-06T13:43:44.525Z,-0.09
2023-02-06T13:46:14.603Z,-0.15
2023-02-06T13:48:51.401Z,-0.25
2023-02-06T13:51:18.542Z,-0.26
2023-02-06T13:54:05.470Z,-0.29
2023-02-06T13:56:54.411Z,-0.22
2023-02-06T13:59:24.696Z,-0.21
2023-02-06T14:01:52.821Z,-0.30
2023-02-06T14:04:28.569Z,-0.42
2023-02-06T14:07:10.252Z,-0.40
2023-02-06T14:10:14.878Z,-0.38
2023-02-06T14:12:54.260Z,-0.45
2023-02-06T14:15:33.332Z,-0.45
2023-02-06T14:18:19.326Z,-0.43
2023-02-06T14:21:07.676Z,-0.43
2023-02-06T14:23:41.973Z,-0.51
2023-02-06T14:26:11.269Z,-0.48
2023-02-06T14:28:38.590Z,-0.45
2023-02-06T14:31:11.628Z,-0.54
2023-02-06T14:33:44.993Z,-0.56
2023-02-06T14:36:11.862Z,-0.63
2023-02-06T14:38:57.858Z,-0.65
2023-02-06T14:41:27.859Z,-0.69
2023-02-06T14:43:55.290Z,-0.83
2023-02-06T14:46:22.634Z,-0.88
2023-02-06T14:48:52.222Z,-0.94
2023-02-06T14:51:25.199Z,-0.97
2023-02-06T14:54:03.038Z,-1.01
2023-02-06T14:56:39.391Z,-1.02
2023-02-06T14:59:12.570Z,-1.05
2023-02-06T15:01:40.134Z,-1.07
2023-02-06T15:04:09.325Z,-1.12
2023-02-06T15:06:39.556Z,-1.15
2023-02-06T15:09:07.113Z,-1.19
2023-02-06T15:11:34.689Z,-1.24
2023-02-06T15:14:06.141Z,-1.29
2023-02-06T15:16:45.775Z,-1.31
2023-02-06T15:19:17.263Z,-1.33
2023-02-06T15:21:44.345Z,-1.32
2023-02-06T15:24:30.724Z,-1.37
2023-02-06T15:27:06.726Z,-1.41
2023-02-06T15:29:34.011Z,-1.51
2023-02-06T15:32:17.008Z,-1.57
2023-02-06T15:34:46.035Z,-1.65
2023-02-06T15:37:20.123Z,-1.70
2023-02-06T15:39:47.945Z,-1.80
2023-02-06T15:42:15.168Z,-1.84
2023-02-06T15:44:42.861Z,-1.92
2023-02-06T15:47:12.997Z,-2.04
2023-02-06T15:49:42.511Z,-2.11
2023-02-06T15:52:13.445Z,-2.19
2023-02-06T15:54:42.705Z,-2.26
2023-02-06T15:57:21.688Z,-2.30
2023-02-06T15:59:48.979Z,-2.40
2023-02-06T16:02:20.806Z,-2.43
2023-02-06T16:04:51.069Z,-2.49
2023-02-06T16:07:18.318Z,-2.56
2023-02-06T16:10:04.028Z,-2.55
2023-02-06T16:12:49.311Z,-2.57
2023-02-06T16:15:26.019Z,-2.55
2023-02-06T16:17:53.560Z,-2.62
2023-02-06T16:20:39.870Z,-2.65
2023-02-06T16:23:24.381Z,-2.66
2023-02-06T16:26:03.902Z,-2.77
2023-02-06T16:28:39.440Z,-2.81
2023-02-06T16:31:06.878Z,-2.91
2023-02-06T16:33:44.415Z,-2.99
2023-02-06T16:36:16.269Z,-3.10
2023-02-06T16:38:48.369Z,-3.11
2023-02-06T16:41:27.782Z,-3.24
2023-02-06T16:43:55.228Z,-3.26
2023-02-06T16:46:22.544Z,-3.28
2023-02-06T16:48:50.199Z,-3.35
2023-02-06T16:51:19.591Z,-3.37
2023-02-06T16:53:48.293Z,-3.47
2023-02-06T16:56:16.343Z,-3.49
2023-02-06T16:58:45.608Z,-3.56
2023-02-06T17:01:19.877Z,-3.60
2023-02-06T17:03:47.364Z,-3.59
2023-02-06T17:06:18.153Z,-3.66
2023-02-06T17:08:45.510Z,-3.72
2023-02-06T17:11:15.429Z,-3.78
2023-02-06T17:13:42.533Z,-3.82
2023-02-06T17:16:15.794Z,-3.82
2023-02-06T17:18:42.955Z,-3.88
2023-02-06T17:21:13.104Z,-3.94
2023-02-06T17:23:41.015Z,-3.97
2023-02-06T17:26:12.716Z,-3.99
2023-02-06T17:28:40.201Z,-4.02
2023-02-06T17:31:07.946Z,-4.07
2023-02-06T17:33:35.801Z,-4.01
2023-02-06T17:36:03.709Z,-4.06
2023-02-06T17:38:30.839Z,-4.09
2023-02-06T17:40:58.764Z,-4.09
2023-02-06T17:43:26.380Z,-4.02
2023-02-06T17:45:57.191Z,-3.87
2023-02-06T17:48:24.509Z,-3.84
2023-02-06T17:50:51.824Z,-3.92
2023-02-06T17:53:19.209Z,-4.02
2023-02-06T17:55:47.742Z,-4.06
2023-02-06T17:58:14.971Z,-4.13
2023-02-06T18:00:43.155Z,-4.14
2023-02-06T18:03:17.145Z,-4.19
2023-02-06T18:05:47.285Z,-4.21
2023-02-06T18:08:16.569Z,-4.26
2023-02-06T18:10:45.073Z,-4.25
2023-02-06T18:13:13.135Z,-4.25
2023-02-06T18:15:40.744Z,-4.35
2023-02-06T18:18:08.468Z,-4.42
2023-02-06T18:20:38.601Z,-4.47
2023-02-06T18:23:06.388Z,-4.53
2023-02-06T18:25:34.304Z,-4.58
2023-02-06T18:28:01.903Z,-4.58
2023-02-06T18:30:29.636Z,-4.65
2023-02-06T18:32:57.130Z,-4.71
2023-02-06T18:35:24.986Z,-4.76
2023-02-06T18:37:53.045Z,-4.78
2023-02-06T18:40:21.161Z,-4.73
2023-02-06T18:42:52.028Z,-4.76
2023-02-06T18:45:24.362Z,-4.77
2023-02-06T18:47:52.577Z,-4.82
2023-02-06T18:50:22.018Z,-4.77
2023-02-06T18:52:53.097Z,-4.82
2023-02-06T18:55:20.875Z,-4.86
2023-02-06T18:57:50.877Z,-4.93
2023-02-06T19:00:20.302Z,-4.91
2023-02-06T19:02:48.705Z,-4.91
2023-02-06T19:05:18.381Z,-4.72
2023-02-06T19:07:51.380Z,-4.73
2023-02-06T19:10:20.476Z,-4.75
2023-02-06T19:12:48.635Z,-4.67
2023-02-06T19:15:17.116Z,-4.61
2023-02-06T19:17:47.522Z,-4.54
2023-02-06T19:20:15.572Z,-4.52
2023-02-06T19:22:43.763Z,-4.44
2023-02-06T19:25:14.620Z,-4.48
2023-02-06T19:27:42.488Z,-4.44
2023-02-06T19:30:11.070Z,-4.49
2023-02-06T19:32:38.730Z,-4.41
2023-02-06T19:35:07.113Z,-4.27
2023-02-06T19:37:34.814Z,-4.24
2023-02-06T19:40:03.030Z,-4.34
2023-02-06T19:42:32.842Z,-4.36
2023-02-06T19:45:01.017Z,-4.33
2023-02-06T19:47:28.916Z,-4.38
2023-02-06T19:50:00.308Z,-4.37
2023-02-06T19:52:28.694Z,-4.44
2023-02-06T19:55:00.401Z,-4.54
2023-02-06T19:57:29.269Z,-4.61
2023-02-06T19:59:58.503Z,-4.55
2023-02-06T20:02:25.860Z,-4.50
2023-02-06T20:04:53.621Z,-4.41
2023-02-06T20:07:21.265Z,-4.37
2023-02-06T20:09:53.819Z,-4.21
2023-02-06T20:12:22.043Z,-4.22
2023-02-06T20:14:50.142Z,-4.34
2023-02-06T20:17:19.345Z,-4.36
2023-02-06T20:19:47.406Z,-4.42
2023-02-06T20:22:15.385Z,-4.40
2023-02-06T20:24:44.355Z,-4.46
2023-02-06T20:27:16.320Z,-4.49
2023-02-06T20:29:46.878Z,-4.43
2023-02-06T20:32:18.995Z,-4.45
2023-02-06T20:34:47.801Z,-4.54
2023-02-06T20:37:18.336Z,-4.67
2023-02-06T20:39:46.556Z,-4.75
2023-02-06T20:42:14.137Z,-4.83
2023-02-06T20:44:42.091Z,-4.89
2023-02-06T20:47:14.576Z,-4.98
2023-02-06T20:49:45.038Z,-5.07
2023-02-06T20:52:13.425Z,-5.14
2023-02-06T20:54:41.341Z,-5.22
2023-02-06T20:57:09.188Z,-5.28
2023-02-06T20:59:36.896Z,-5.34
2023-02-06T21:02:04.816Z,-5.35
2023-02-06T21:04:33.920Z,-5.33
2023-02-06T21:07:01.481Z,-5.40
2023-02-06T21:09:29.217Z,-5.42
2023-02-06T21:11:56.978Z,-5.49
2023-02-06T21:14:25.428Z,-5.53
2023-02-06T21:16:52.952Z,-5.59
2023-02-06T21:19:20.790Z,-5.71
2023-02-06T21:21:48.591Z,-5.81
2023-02-06T21:24:16.448Z,-5.82
2023-02-06T21:26:43.767Z,-5.92
2023-02-06T21:29:12.395Z,-5.99
2023-02-06T21:31:39.543Z,-6.06
2023-02-06T21:34:09.226Z,-6.13
2023-02-06T21:36:37.884Z,-6.20
2023-02-06T21:39:05.520Z,-6.21
2023-02-06T21:41:32.789Z,-6.20
2023-02-06T21:44:00.084Z,-6.15
2023-02-06T21:46:29.162Z,-6.10
2023-02-06T21:48:56.713Z,-6.07
2023-02-06T21:51:23.963Z,-6.04
2023-02-06T21:53:51.279Z,-5.99
2023-02-06T21:56:22.180Z,-5.97
2023-02-06T21:58:52.310Z,-5.95
2023-02-06T22:01:20.761Z,-6.00
2023-02-06T22:03:48.042Z,-6.02
2023-02-06T22:06:15.385Z,-6.08
2023-02-06T22:08:48.052Z,-6.12
2023-02-06T22:11:16.278Z,-6.17
2023-02-06T22:13:43.997Z,-6.12
2023-02-06T22:16:11.820Z,-6.12
2023-02-06T22:18:41.938Z,-6.13
2023-02-06T22:21:10.645Z,-6.09
2023-02-06T22:23:38.039Z,-6.11
2023-02-06T22:26:08.217Z,-6.15
2023-02-06T22:28:35.581Z,-6.13
2023-02-06T22:31:10.396Z,-6.14
2023-02-06T22:33:37.989Z,-6.17
2023-02-06T22:36:09.338Z,-6.27
2023-02-06T22:38:37.224Z,-6.32
2023-02-06T22:41:08.792Z,-6.22
2023-02-06T22:43:37.028Z,-6.23
2023-02-06T22:46:04.400Z,-6.26
2023-02-06T22:48:31.603Z,-6.25
2023-02-06T22:51:11.255Z,-6.27
2023-02-06T22:53:38.893Z,-6.29
2023-02-06T22:56:26.005Z,-6.30
2023-02-06T22:58:58.214Z,-6.30
2023-02-06T23:01:26.023Z,-6.29
2023-02-06T23:03:53.995Z,-6.29
2023-02-06T23:06:21.414Z,-6.34
2023-02-06T23:08:48.779Z,-6.38
2023-02-06T23:11:16.050Z,-6.36
2023-02-06T23:13:43.359Z,-6.39
2023-02-06T23:16:10.609Z,-6.40
2023-02-06T23:18:37.959Z,-6.44
2023-02-06T23:21:06.611Z,-6.44
2023-02-06T23:23:34.153Z,-6.43
2023-02-06T23:26:03.944Z,-6.49
2023-02-06T23:28:31.107Z,-6.60
2023-02-06T23:30:58.157Z,-6.61
2023-02-06T23:33:25.490Z,-6.63
2023-02-06T23:35:52.435Z,-6.57
2023-02-06T23:38:19.678Z,-6.58
2023-02-06T23:40:47.650Z,-6.57
2023-02-06T23:43:14.914Z,-6.53
2023-02-06T23:45:41.924Z,-6.52
2023-02-06T23:48:09.210Z,-6.29
2023-02-06T23:50:36.102Z,-6.19
2023-02-06T23:53:03.458Z,-6.10
2023-02-06T23:55:30.727Z,-6.01
2023-02-06T23:57:58.132Z,-5.97
